sensor_id;sensor_type;location;lat;lon;timestamp;P1;durP1;ratioP1;P2;durP2;ratioP2
75990;SDS011;64673;52.276;10.560;2023-05-23T00:01:32;17.42;;;12.02;;
75990;SDS011;64673;52.276;10.560;2023-05-23T00:04:01;19.15;;;12.57;;
75990;SDS011;64673;52.276;10.560;2023-05-23T00:06:27;21.38;;;12.93;;
75990;SDS011;64673;52.276;10.560;2023-05-23T00:08:52;25.23;;;14.32;;
75990;SDS011;64673;52.276;10.560;2023-05-23T00:11:17;22.73;;;14.27;;
75990;SDS011;64673;52.276;10.560;2023-05-23T00:13:44;18.70;;;13.00;;
75990;SDS011;64673;52.276;10.560;2023-05-23T00:16:09;23.33;;;13.98;;
75990;SDS011;64673;52.276;10.560;2023-05-23T00:18:35;23.05;;;13.75;;
75990;SDS011;64673;52.276;10.560;2023-05-23T00:21:01;22.85;;;14.27;;
75990;SDS011;64673;52.276;10.560;2023-05-23T00:23:27;23.77;;;15.15;;
75990;SDS011;64673;52.276;10.560;2023-05-23T00:25:53;27.13;;;15.82;;
75990;SDS011;64673;52.276;10.560;2023-05-23T00:28:20;22.50;;;14.70;;
75990;SDS011;64673;52.276;10.560;2023-05-23T00:30:46;25.85;;;15.20;;
75990;SDS011;64673;52.276;10.560;2023-05-23T00:33:13;28.33;;;16.52;;
75990;SDS011;64673;52.276;10.560;2023-05-23T00:35:40;31.33;;;17.50;;
75990;SDS011;64673;52.276;10.560;2023-05-23T00:38:05;32.00;;;17.38;;
75990;SDS011;64673;52.276;10.560;2023-05-23T00:40:33;34.40;;;18.98;;
75990;SDS011;64673;52.276;10.560;2023-05-23T00:42:59;31.15;;;17.85;;
75990;SDS011;64673;52.276;10.560;2023-05-23T00:45:25;31.40;;;17.55;;
75990;SDS011;64673;52.276;10.560;2023-05-23T00:47:51;37.58;;;19.10;;
75990;SDS011;64673;52.276;10.560;2023-05-23T00:50:17;37.00;;;19.90;;
75990;SDS011;64673;52.276;10.560;2023-05-23T00:52:43;33.38;;;19.95;;
75990;SDS011;64673;52.276;10.560;2023-05-23T00:55:10;40.53;;;20.02;;
75990;SDS011;64673;52.276;10.560;2023-05-23T00:57:36;33.92;;;19.23;;
75990;SDS011;64673;52.276;10.560;2023-05-23T01:00:14;37.55;;;20.70;;
75990;SDS011;64673;52.276;10.560;2023-05-23T01:02:43;36.10;;;18.25;;
75990;SDS011;64673;52.276;10.560;2023-05-23T01:05:11;35.40;;;19.77;;
75990;SDS011;64673;52.276;10.560;2023-05-23T01:07:38;39.70;;;20.58;;
75990;SDS011;64673;52.276;10.560;2023-05-23T01:10:12;39.53;;;20.75;;
75990;SDS011;64673;52.276;10.560;2023-05-23T01:15:50;41.55;;;21.08;;
75990;SDS011;64673;52.276;10.560;2023-05-23T01:18:23;40.00;;;20.17;;
75990;SDS011;64673;52.276;10.560;2023-05-23T01:21:01;53.90;;;23.13;;
75990;SDS011;64673;52.276;10.560;2023-05-23T01:29:11;57.13;;;24.90;;
75990;SDS011;64673;52.276;10.560;2023-05-23T01:31:44;61.90;;;26.20;;
75990;SDS011;64673;52.276;10.560;2023-05-23T01:34:13;58.25;;;25.27;;
75990;SDS011;64673;52.276;10.560;2023-05-23T01:36:41;55.92;;;25.48;;
75990;SDS011;64673;52.276;10.560;2023-05-23T01:39:07;52.10;;;23.88;;
75990;SDS011;64673;52.276;10.560;2023-05-23T01:41:32;48.88;;;23.13;;
75990;SDS011;64673;52.276;10.560;2023-05-23T01:43:57;53.03;;;25.40;;
75990;SDS011;64673;52.276;10.560;2023-05-23T01:46:23;58.55;;;25.35;;
75990;SDS011;64673;52.276;10.560;2023-05-23T01:48:51;51.60;;;24.92;;
75990;SDS011;64673;52.276;10.560;2023-05-23T01:51:18;52.22;;;25.63;;
75990;SDS011;64673;52.276;10.560;2023-05-23T01:53:47;54.13;;;25.83;;
75990;SDS011;64673;52.276;10.560;2023-05-23T01:56:15;53.00;;;24.50;;
75990;SDS011;64673;52.276;10.560;2023-05-23T01:58:41;54.28;;;25.42;;
75990;SDS011;64673;52.276;10.560;2023-05-23T02:01:07;53.47;;;25.17;;
75990;SDS011;64673;52.276;10.560;2023-05-23T02:03:34;51.55;;;24.48;;
75990;SDS011;64673;52.276;10.560;2023-05-23T02:05:59;52.88;;;24.08;;
75990;SDS011;64673;52.276;10.560;2023-05-23T02:08:24;48.38;;;24.13;;
75990;SDS011;64673;52.276;10.560;2023-05-23T02:10:50;47.75;;;22.67;;
75990;SDS011;64673;52.276;10.560;2023-05-23T02:13:15;43.53;;;23.35;;
75990;SDS011;64673;52.276;10.560;2023-05-23T02:15:40;42.08;;;21.83;;
75990;SDS011;64673;52.276;10.560;2023-05-23T02:18:06;40.22;;;20.45;;
75990;SDS011;64673;52.276;10.560;2023-05-23T02:20:31;43.88;;;21.45;;
75990;SDS011;64673;52.276;10.560;2023-05-23T02:22:57;40.83;;;21.55;;
75990;SDS011;64673;52.276;10.560;2023-05-23T02:25:22;43.50;;;20.70;;
75990;SDS011;64673;52.276;10.560;2023-05-23T02:27:47;40.55;;;20.38;;
75990;SDS011;64673;52.276;10.560;2023-05-23T02:30:13;38.08;;;20.13;;
75990;SDS011;64673;52.276;10.560;2023-05-23T02:32:38;42.67;;;19.90;;
75990;SDS011;64673;52.276;10.560;2023-05-23T02:35:04;41.22;;;20.75;;
75990;SDS011;64673;52.276;10.560;2023-05-23T02:37:30;47.28;;;22.13;;
75990;SDS011;64673;52.276;10.560;2023-05-23T02:39:55;54.30;;;24.70;;
75990;SDS011;64673;52.276;10.560;2023-05-23T02:42:21;62.13;;;27.55;;
75990;SDS011;64673;52.276;10.560;2023-05-23T02:44:46;69.05;;;27.20;;
75990;SDS011;64673;52.276;10.560;2023-05-23T02:47:12;71.47;;;30.80;;
75990;SDS011;64673;52.276;10.560;2023-05-23T02:49:37;82.30;;;31.85;;
75990;SDS011;64673;52.276;10.560;2023-05-23T02:52:02;91.80;;;35.10;;
75990;SDS011;64673;52.276;10.560;2023-05-23T02:54:28;104.18;;;36.30;;
75990;SDS011;64673;52.276;10.560;2023-05-23T02:56:53;114.25;;;38.30;;
75990;SDS011;64673;52.276;10.560;2023-05-23T02:59:19;109.53;;;39.17;;
75990;SDS011;64673;52.276;10.560;2023-05-23T03:01:46;121.72;;;40.08;;
75990;SDS011;64673;52.276;10.560;2023-05-23T03:04:11;130.98;;;43.47;;
75990;SDS011;64673;52.276;10.560;2023-05-23T03:06:37;122.22;;;43.78;;
75990;SDS011;64673;52.276;10.560;2023-05-23T03:09:03;133.25;;;45.47;;
75990;SDS011;64673;52.276;10.560;2023-05-23T03:11:29;126.13;;;45.10;;
75990;SDS011;64673;52.276;10.560;2023-05-23T03:13:55;133.30;;;47.03;;
75990;SDS011;64673;52.276;10.560;2023-05-23T03:16:23;130.48;;;44.60;;
75990;SDS011;64673;52.276;10.560;2023-05-23T03:18:48;119.05;;;40.92;;
75990;SDS011;64673;52.276;10.560;2023-05-23T03:21:14;121.68;;;42.05;;
75990;SDS011;64673;52.276;10.560;2023-05-23T03:23:39;110.50;;;38.90;;
75990;SDS011;64673;52.276;10.560;2023-05-23T03:26:04;93.18;;;34.55;;
75990;SDS011;64673;52.276;10.560;2023-05-23T03:28:30;74.28;;;30.00;;
75990;SDS011;64673;52.276;10.560;2023-05-23T03:30:56;65.57;;;27.70;;
75990;SDS011;64673;52.276;10.560;2023-05-23T03:33:22;64.65;;;27.90;;
75990;SDS011;64673;52.276;10.560;2023-05-23T03:35:47;56.03;;;26.30;;
75990;SDS011;64673;52.276;10.560;2023-05-23T03:38:14;53.03;;;23.58;;
75990;SDS011;64673;52.276;10.560;2023-05-23T03:40:40;60.00;;;24.88;;
75990;SDS011;64673;52.276;10.560;2023-05-23T03:43:05;54.40;;;25.08;;
75990;SDS011;64673;52.276;10.560;2023-05-23T03:45:31;50.03;;;21.63;;
75990;SDS011;64673;52.276;10.560;2023-05-23T03:47:57;44.03;;;22.02;;
75990;SDS011;64673;52.276;10.560;2023-05-23T03:50:23;40.42;;;20.10;;
75990;SDS011;64673;52.276;10.560;2023-05-23T03:52:48;44.13;;;21.42;;
75990;SDS011;64673;52.276;10.560;2023-05-23T03:55:14;43.95;;;19.52;;
75990;SDS011;64673;52.276;10.560;2023-05-23T03:57:39;44.17;;;19.75;;
75990;SDS011;64673;52.276;10.560;2023-05-23T04:00:05;40.20;;;18.90;;
75990;SDS011;64673;52.276;10.560;2023-05-23T04:02:35;38.25;;;19.65;;
75990;SDS011;64673;52.276;10.560;2023-05-23T04:05:01;37.33;;;18.27;;
75990;SDS011;64673;52.276;10.560;2023-05-23T04:07:26;34.53;;;17.52;;
75990;SDS011;64673;52.276;10.560;2023-05-23T04:09:52;39.08;;;17.95;;
75990;SDS011;64673;52.276;10.560;2023-05-23T04:12:17;38.13;;;18.95;;
75990;SDS011;64673;52.276;10.560;2023-05-23T04:14:43;34.55;;;17.13;;
75990;SDS011;64673;52.276;10.560;2023-05-23T04:17:11;38.42;;;18.02;;
75990;SDS011;64673;52.276;10.560;2023-05-23T04:19:37;35.53;;;17.90;;
75990;SDS011;64673;52.276;10.560;2023-05-23T04:22:02;34.13;;;17.75;;
75990;SDS011;64673;52.276;10.560;2023-05-23T04:24:28;33.83;;;16.85;;
75990;SDS011;64673;52.276;10.560;2023-05-23T04:26:53;29.02;;;14.88;;
75990;SDS011;64673;52.276;10.560;2023-05-23T04:29:20;29.55;;;15.15;;
75990;SDS011;64673;52.276;10.560;2023-05-23T04:31:45;33.10;;;16.13;;
75990;SDS011;64673;52.276;10.560;2023-05-23T04:34:11;35.05;;;16.90;;
75990;SDS011;64673;52.276;10.560;2023-05-23T04:36:36;28.60;;;15.07;;
75990;SDS011;64673;52.276;10.560;2023-05-23T04:39:02;35.83;;;16.98;;
75990;SDS011;64673;52.276;10.560;2023-05-23T04:41:29;33.75;;;15.88;;
75990;SDS011;64673;52.276;10.560;2023-05-23T04:43:55;28.77;;;14.93;;
75990;SDS011;64673;52.276;10.560;2023-05-23T04:46:22;27.35;;;14.02;;
75990;SDS011;64673;52.276;10.560;2023-05-23T04:48:50;26.73;;;13.15;;
75990;SDS011;64673;52.276;10.560;2023-05-23T04:51:15;28.45;;;14.35;;
75990;SDS011;64673;52.276;10.560;2023-05-23T04:53:41;29.73;;;14.52;;
75990;SDS011;64673;52.276;10.560;2023-05-23T04:56:07;30.10;;;13.77;;
75990;SDS011;64673;52.276;10.560;2023-05-23T04:58:33;26.95;;;13.38;;
75990;SDS011;64673;52.276;10.560;2023-05-23T05:00:59;28.25;;;13.40;;
75990;SDS011;64673;52.276;10.560;2023-05-23T05:03:24;24.58;;;12.60;;
75990;SDS011;64673;52.276;10.560;2023-05-23T05:05:50;25.02;;;12.95;;
75990;SDS011;64673;52.276;10.560;2023-05-23T05:08:15;23.85;;;12.18;;
75990;SDS011;64673;52.276;10.560;2023-05-23T05:10:43;24.35;;;12.60;;
75990;SDS011;64673;52.276;10.560;2023-05-23T05:13:09;26.20;;;12.57;;
75990;SDS011;64673;52.276;10.560;2023-05-23T05:15:35;25.48;;;13.00;;
75990;SDS011;64673;52.276;10.560;2023-05-23T05:18:00;24.98;;;12.40;;
75990;SDS011;64673;52.276;10.560;2023-05-23T05:20:25;31.55;;;13.88;;
75990;SDS011;64673;52.276;10.560;2023-05-23T05:22:54;27.30;;;13.20;;
75990;SDS011;64673;52.276;10.560;2023-05-23T05:25:21;28.55;;;13.55;;
75990;SDS011;64673;52.276;10.560;2023-05-23T05:27:47;25.90;;;13.43;;
75990;SDS011;64673;52.276;10.560;2023-05-23T05:30:13;30.05;;;13.65;;
75990;SDS011;64673;52.276;10.560;2023-05-23T05:32:38;28.95;;;13.30;;
75990;SDS011;64673;52.276;10.560;2023-05-23T05:35:04;23.65;;;12.52;;
75990;SDS011;64673;52.276;10.560;2023-05-23T05:37:31;24.75;;;12.43;;
75990;SDS011;64673;52.276;10.560;2023-05-23T05:39:57;25.05;;;12.52;;
75990;SDS011;64673;52.276;10.560;2023-05-23T05:42:23;27.30;;;12.05;;
75990;SDS011;64673;52.276;10.560;2023-05-23T05:44:48;22.35;;;12.02;;
75990;SDS011;64673;52.276;10.560;2023-05-23T05:47:14;24.10;;;11.77;;
75990;SDS011;64673;52.276;10.560;2023-05-23T05:49:40;23.70;;;12.77;;
75990;SDS011;64673;52.276;10.560;2023-05-23T05:52:06;21.67;;;11.40;;
75990;SDS011;64673;52.276;10.560;2023-05-23T05:54:32;19.55;;;10.13;;
75990;SDS011;64673;52.276;10.560;2023-05-23T05:56:57;19.77;;;10.98;;
75990;SDS011;64673;52.276;10.560;2023-05-23T05:59:22;22.58;;;11.25;;
75990;SDS011;64673;52.276;10.560;2023-05-23T06:01:48;20.65;;;10.88;;
75990;SDS011;64673;52.276;10.560;2023-05-23T06:04:15;19.83;;;10.73;;
75990;SDS011;64673;52.276;10.560;2023-05-23T06:06:41;21.27;;;10.50;;
75990;SDS011;64673;52.276;10.560;2023-05-23T06:09:06;17.88;;;9.05;;
75990;SDS011;64673;52.276;10.560;2023-05-23T06:11:31;21.58;;;10.18;;
75990;SDS011;64673;52.276;10.560;2023-05-23T06:13:57;20.50;;;9.90;;
75990;SDS011;64673;52.276;10.560;2023-05-23T06:16:22;20.35;;;10.10;;
75990;SDS011;64673;52.276;10.560;2023-05-23T06:18:48;20.38;;;9.93;;
75990;SDS011;64673;52.276;10.560;2023-05-23T06:21:13;18.70;;;9.38;;
75990;SDS011;64673;52.276;10.560;2023-05-23T06:23:38;19.30;;;8.55;;
75990;SDS011;64673;52.276;10.560;2023-05-23T06:26:04;15.63;;;8.13;;
75990;SDS011;64673;52.276;10.560;2023-05-23T06:28:32;18.77;;;9.65;;
75990;SDS011;64673;52.276;10.560;2023-05-23T06:30:57;20.50;;;9.13;;
75990;SDS011;64673;52.276;10.560;2023-05-23T06:33:22;20.42;;;9.85;;
75990;SDS011;64673;52.276;10.560;2023-05-23T06:35:48;24.15;;;9.90;;
75990;SDS011;64673;52.276;10.560;2023-05-23T06:38:13;23.77;;;10.57;;
75990;SDS011;64673;52.276;10.560;2023-05-23T06:40:38;20.50;;;10.23;;
75990;SDS011;64673;52.276;10.560;2023-05-23T06:43:05;20.88;;;10.20;;
75990;SDS011;64673;52.276;10.560;2023-05-23T06:45:30;23.55;;;10.35;;
75990;SDS011;64673;52.276;10.560;2023-05-23T06:47:55;23.42;;;11.45;;
75990;SDS011;64673;52.276;10.560;2023-05-23T06:50:21;23.90;;;9.75;;
75990;SDS011;64673;52.276;10.560;2023-05-23T06:52:46;22.23;;;9.63;;
75990;SDS011;64673;52.276;10.560;2023-05-23T06:55:11;22.08;;;9.48;;
75990;SDS011;64673;52.276;10.560;2023-05-23T06:57:42;22.75;;;10.35;;
75990;SDS011;64673;52.276;10.560;2023-05-23T07:00:07;21.35;;;9.55;;
75990;SDS011;64673;52.276;10.560;2023-05-23T07:02:34;21.17;;;8.82;;
75990;SDS011;64673;52.276;10.560;2023-05-23T07:04:59;20.13;;;9.10;;
75990;SDS011;64673;52.276;10.560;2023-05-23T07:07:24;17.42;;;7.72;;
75990;SDS011;64673;52.276;10.560;2023-05-23T07:09:50;19.38;;;8.15;;
75990;SDS011;64673;52.276;10.560;2023-05-23T07:12:15;16.15;;;8.52;;
75990;SDS011;64673;52.276;10.560;2023-05-23T07:14:40;16.55;;;8.32;;
75990;SDS011;64673;52.276;10.560;2023-05-23T07:17:06;18.98;;;9.10;;
75990;SDS011;64673;52.276;10.560;2023-05-23T07:19:31;19.15;;;9.20;;
75990;SDS011;64673;52.276;10.560;2023-05-23T07:21:56;17.30;;;9.77;;
75990;SDS011;64673;52.276;10.560;2023-05-23T07:24:22;18.55;;;9.85;;
75990;SDS011;64673;52.276;10.560;2023-05-23T07:26:47;18.50;;;9.38;;
75990;SDS011;64673;52.276;10.560;2023-05-23T07:29:13;20.83;;;8.90;;
75990;SDS011;64673;52.276;10.560;2023-05-23T07:31:38;15.60;;;8.65;;
75990;SDS011;64673;52.276;10.560;2023-05-23T07:34:03;15.55;;;8.23;;
75990;SDS011;64673;52.276;10.560;2023-05-23T07:36:29;16.75;;;9.13;;
75990;SDS011;64673;52.276;10.560;2023-05-23T07:38:57;17.35;;;8.20;;
75990;SDS011;64673;52.276;10.560;2023-05-23T07:41:23;16.20;;;7.90;;
75990;SDS011;64673;52.276;10.560;2023-05-23T07:43:49;14.88;;;8.45;;
75990;SDS011;64673;52.276;10.560;2023-05-23T07:46:15;14.10;;;7.97;;
75990;SDS011;64673;52.276;10.560;2023-05-23T07:48:40;17.30;;;7.90;;
75990;SDS011;64673;52.276;10.560;2023-05-23T07:51:06;15.82;;;8.10;;
75990;SDS011;64673;52.276;10.560;2023-05-23T07:53:31;14.75;;;8.65;;
75990;SDS011;64673;52.276;10.560;2023-05-23T07:55:56;15.70;;;7.55;;
75990;SDS011;64673;52.276;10.560;2023-05-23T07:58:22;14.32;;;8.18;;
75990;SDS011;64673;52.276;10.560;2023-05-23T08:00:47;14.55;;;8.05;;
75990;SDS011;64673;52.276;10.560;2023-05-23T08:03:13;11.95;;;7.70;;
75990;SDS011;64673;52.276;10.560;2023-05-23T08:05:38;14.95;;;8.00;;
75990;SDS011;64673;52.276;10.560;2023-05-23T08:08:03;13.82;;;8.27;;
75990;SDS011;64673;52.276;10.560;2023-05-23T08:10:29;13.00;;;8.13;;
75990;SDS011;64673;52.276;10.560;2023-05-23T08:12:54;13.02;;;7.00;;
75990;SDS011;64673;52.276;10.560;2023-05-23T08:15:20;13.55;;;7.35;;
75990;SDS011;64673;52.276;10.560;2023-05-23T08:17:47;10.20;;;5.85;;
75990;SDS011;64673;52.276;10.560;2023-05-23T08:20:13;11.80;;;6.85;;
75990;SDS011;64673;52.276;10.560;2023-05-23T08:22:38;10.43;;;6.40;;
75990;SDS011;64673;52.276;10.560;2023-05-23T08:25:04;11.70;;;6.38;;
75990;SDS011;64673;52.276;10.560;2023-05-23T08:27:30;9.95;;;5.88;;
75990;SDS011;64673;52.276;10.560;2023-05-23T08:29:55;10.60;;;6.13;;
75990;SDS011;64673;52.276;10.560;2023-05-23T08:32:21;7.97;;;5.30;;
75990;SDS011;64673;52.276;10.560;2023-05-23T08:34:47;9.63;;;5.38;;
75990;SDS011;64673;52.276;10.560;2023-05-23T08:37:13;10.50;;;5.78;;
75990;SDS011;64673;52.276;10.560;2023-05-23T08:39:38;8.77;;;5.60;;
75990;SDS011;64673;52.276;10.560;2023-05-23T08:42:04;12.20;;;6.15;;
75990;SDS011;64673;52.276;10.560;2023-05-23T08:44:29;12.00;;;5.97;;
75990;SDS011;64673;52.276;10.560;2023-05-23T08:46:55;11.88;;;7.03;;
75990;SDS011;64673;52.276;10.560;2023-05-23T08:49:24;10.68;;;6.40;;
75990;SDS011;64673;52.276;10.560;2023-05-23T08:51:50;12.55;;;6.47;;
75990;SDS011;64673;52.276;10.560;2023-05-23T08:54:22;10.98;;;6.88;;
75990;SDS011;64673;52.276;10.560;2023-05-23T08:56:48;12.80;;;7.03;;
75990;SDS011;64673;52.276;10.560;2023-05-23T08:59:16;12.60;;;6.88;;
75990;SDS011;64673;52.276;10.560;2023-05-23T09:01:42;13.38;;;7.75;;
75990;SDS011;64673;52.276;10.560;2023-05-23T09:04:08;11.32;;;7.10;;
75990;SDS011;64673;52.276;10.560;2023-05-23T09:06:34;15.15;;;8.15;;
75990;SDS011;64673;52.276;10.560;2023-05-23T09:08:59;14.68;;;7.60;;
75990;SDS011;64673;52.276;10.560;2023-05-23T09:11:25;13.88;;;7.80;;
75990;SDS011;64673;52.276;10.560;2023-05-23T09:13:50;12.70;;;7.85;;
75990;SDS011;64673;52.276;10.560;2023-05-23T09:16:16;14.10;;;8.20;;
75990;SDS011;64673;52.276;10.560;2023-05-23T09:18:43;19.23;;;9.25;;
75990;SDS011;64673;52.276;10.560;2023-05-23T09:21:10;15.25;;;9.00;;
75990;SDS011;64673;52.276;10.560;2023-05-23T09:23:40;16.98;;;8.80;;
75990;SDS011;64673;52.276;10.560;2023-05-23T09:26:06;18.77;;;9.75;;
75990;SDS011;64673;52.276;10.560;2023-05-23T09:28:34;18.25;;;9.77;;
75990;SDS011;64673;52.276;10.560;2023-05-23T09:33:34;14.93;;;7.97;;
75990;SDS011;64673;52.276;10.560;2023-05-23T09:36:05;16.05;;;8.93;;
75990;SDS011;64673;52.276;10.560;2023-05-23T09:38:37;14.55;;;7.25;;
75990;SDS011;64673;52.276;10.560;2023-05-23T09:41:03;13.40;;;7.53;;
75990;SDS011;64673;52.276;10.560;2023-05-23T09:43:29;11.15;;;7.32;;
75990;SDS011;64673;52.276;10.560;2023-05-23T09:45:54;12.63;;;6.63;;
75990;SDS011;64673;52.276;10.560;2023-05-23T09:48:27;14.80;;;7.25;;
75990;SDS011;64673;52.276;10.560;2023-05-23T09:50:56;11.75;;;6.95;;
75990;SDS011;64673;52.276;10.560;2023-05-23T09:53:21;12.32;;;6.53;;
75990;SDS011;64673;52.276;10.560;2023-05-23T09:55:49;10.15;;;6.05;;
75990;SDS011;64673;52.276;10.560;2023-05-23T09:58:16;11.93;;;5.93;;
75990;SDS011;64673;52.276;10.560;2023-05-23T10:00:44;14.52;;;7.53;;
75990;SDS011;64673;52.276;10.560;2023-05-23T10:05:43;16.92;;;8.48;;
75990;SDS011;64673;52.276;10.560;2023-05-23T10:08:11;15.23;;;8.10;;
75990;SDS011;64673;52.276;10.560;2023-05-23T10:13:40;16.35;;;8.13;;
75990;SDS011;64673;52.276;10.560;2023-05-23T10:19:07;16.75;;;9.75;;
75990;SDS011;64673;52.276;10.560;2023-05-23T10:21:46;19.67;;;10.80;;
75990;SDS011;64673;52.276;10.560;2023-05-23T10:24:14;16.08;;;9.43;;
75990;SDS011;64673;52.276;10.560;2023-05-23T10:26:40;18.55;;;9.82;;
75990;SDS011;64673;52.276;10.560;2023-05-23T10:29:07;19.83;;;10.10;;
75990;SDS011;64673;52.276;10.560;2023-05-23T10:31:33;20.92;;;10.63;;
75990;SDS011;64673;52.276;10.560;2023-05-23T10:34:14;13.98;;;7.60;;
75990;SDS011;64673;52.276;10.560;2023-05-23T10:36:55;17.75;;;9.43;;
75990;SDS011;64673;52.276;10.560;2023-05-23T10:39:27;19.73;;;10.05;;
75990;SDS011;64673;52.276;10.560;2023-05-23T10:41:57;26.58;;;11.82;;
75990;SDS011;64673;52.276;10.560;2023-05-23T10:44:30;26.98;;;11.55;;
75990;SDS011;64673;52.276;10.560;2023-05-23T10:46:59;29.05;;;13.00;;
75990;SDS011;64673;52.276;10.560;2023-05-23T10:52:06;28.42;;;10.65;;
75990;SDS011;64673;52.276;10.560;2023-05-23T10:57:10;29.58;;;12.32;;
75990;SDS011;64673;52.276;10.560;2023-05-23T10:59:39;27.33;;;10.73;;
75990;SDS011;64673;52.276;10.560;2023-05-23T11:02:09;26.23;;;12.23;;
75990;SDS011;64673;52.276;10.560;2023-05-23T11:04:38;28.67;;;10.90;;
75990;SDS011;64673;52.276;10.560;2023-05-23T11:07:04;23.33;;;10.98;;
75990;SDS011;64673;52.276;10.560;2023-05-23T11:09:29;20.58;;;10.45;;
75990;SDS011;64673;52.276;10.560;2023-05-23T11:19:36;20.48;;;8.60;;
75990;SDS011;64673;52.276;10.560;2023-05-23T11:22:02;22.50;;;9.25;;
75990;SDS011;64673;52.276;10.560;2023-05-23T11:27:24;18.00;;;8.20;;
75990;SDS011;64673;52.276;10.560;2023-05-23T11:30:13;20.85;;;9.45;;
75990;SDS011;64673;52.276;10.560;2023-05-23T11:32:39;22.70;;;7.80;;
75990;SDS011;64673;52.276;10.560;2023-05-23T11:35:06;24.88;;;8.18;;
75990;SDS011;64673;52.276;10.560;2023-05-23T11:37:33;21.08;;;7.22;;
75990;SDS011;64673;52.276;10.560;2023-05-23T11:40:00;18.25;;;7.55;;
75990;SDS011;64673;52.276;10.560;2023-05-23T11:42:50;18.88;;;7.25;;
75990;SDS011;64673;52.276;10.560;2023-05-23T11:45:18;23.85;;;8.25;;
75990;SDS011;64673;52.276;10.560;2023-05-23T11:47:44;15.38;;;6.80;;
75990;SDS011;64673;52.276;10.560;2023-05-23T11:50:09;20.33;;;7.22;;
75990;SDS011;64673;52.276;10.560;2023-05-23T11:52:35;15.38;;;6.53;;
75990;SDS011;64673;52.276;10.560;2023-05-23T11:55:00;16.90;;;6.10;;
75990;SDS011;64673;52.276;10.560;2023-05-23T11:57:26;15.35;;;5.90;;
75990;SDS011;64673;52.276;10.560;2023-05-23T11:59:51;14.05;;;5.70;;
75990;SDS011;64673;52.276;10.560;2023-05-23T12:02:18;10.57;;;4.95;;
75990;SDS011;64673;52.276;10.560;2023-05-23T12:07:10;12.30;;;4.90;;
75990;SDS011;64673;52.276;10.560;2023-05-23T12:09:42;14.07;;;4.93;;
75990;SDS011;64673;52.276;10.560;2023-05-23T12:12:08;14.57;;;5.25;;
75990;SDS011;64673;52.276;10.560;2023-05-23T12:14:34;10.30;;;5.03;;
75990;SDS011;64673;52.276;10.560;2023-05-23T12:16:59;10.73;;;5.15;;
75990;SDS011;64673;52.276;10.560;2023-05-23T12:19:25;16.23;;;5.72;;
75990;SDS011;64673;52.276;10.560;2023-05-23T12:21:51;16.17;;;6.18;;
75990;SDS011;64673;52.276;10.560;2023-05-23T12:24:17;16.25;;;5.82;;
75990;SDS011;64673;52.276;10.560;2023-05-23T12:29:20;14.63;;;6.05;;
75990;SDS011;64673;52.276;10.560;2023-05-23T12:31:49;12.82;;;5.78;;
75990;SDS011;64673;52.276;10.560;2023-05-23T12:34:15;14.10;;;6.55;;
75990;SDS011;64673;52.276;10.560;2023-05-23T12:36:40;18.58;;;6.80;;
75990;SDS011;64673;52.276;10.560;2023-05-23T12:39:06;16.80;;;6.60;;
75990;SDS011;64673;52.276;10.560;2023-05-23T12:41:33;17.83;;;7.28;;
75990;SDS011;64673;52.276;10.560;2023-05-23T12:43:58;15.07;;;6.40;;
75990;SDS011;64673;52.276;10.560;2023-05-23T12:46:24;14.30;;;5.70;;
75990;SDS011;64673;52.276;10.560;2023-05-23T12:48:51;17.02;;;5.93;;
75990;SDS011;64673;52.276;10.560;2023-05-23T12:51:17;13.35;;;5.80;;
75990;SDS011;64673;52.276;10.560;2023-05-23T12:53:43;18.65;;;6.75;;
75990;SDS011;64673;52.276;10.560;2023-05-23T12:56:08;16.42;;;5.95;;
75990;SDS011;64673;52.276;10.560;2023-05-23T12:58:33;15.23;;;6.25;;
75990;SDS011;64673;52.276;10.560;2023-05-23T13:00:59;14.75;;;5.60;;
75990;SDS011;64673;52.276;10.560;2023-05-23T13:03:26;17.23;;;6.03;;
75990;SDS011;64673;52.276;10.560;2023-05-23T13:05:54;17.85;;;6.80;;
75990;SDS011;64673;52.276;10.560;2023-05-23T13:08:21;12.73;;;5.65;;
75990;SDS011;64673;52.276;10.560;2023-05-23T13:10:47;17.08;;;6.35;;
75990;SDS011;64673;52.276;10.560;2023-05-23T13:13:13;14.95;;;5.25;;
75990;SDS011;64673;52.276;10.560;2023-05-23T13:15:39;15.18;;;5.32;;
75990;SDS011;64673;52.276;10.560;2023-05-23T13:18:04;14.32;;;4.95;;
75990;SDS011;64673;52.276;10.560;2023-05-23T13:20:30;10.20;;;4.32;;
75990;SDS011;64673;52.276;10.560;2023-05-23T13:22:56;10.13;;;4.25;;
75990;SDS011;64673;52.276;10.560;2023-05-23T13:25:21;9.25;;;4.32;;
75990;SDS011;64673;52.276;10.560;2023-05-23T13:27:47;11.00;;;3.67;;
75990;SDS011;64673;52.276;10.560;2023-05-23T13:30:13;9.82;;;3.70;;
75990;SDS011;64673;52.276;10.560;2023-05-23T13:32:38;7.90;;;2.60;;
75990;SDS011;64673;52.276;10.560;2023-05-23T13:35:04;10.27;;;3.00;;
75990;SDS011;64673;52.276;10.560;2023-05-23T13:37:30;5.10;;;2.30;;
75990;SDS011;64673;52.276;10.560;2023-05-23T13:39:55;5.97;;;2.20;;
75990;SDS011;64673;52.276;10.560;2023-05-23T13:42:20;8.57;;;2.65;;
75990;SDS011;64673;52.276;10.560;2023-05-23T13:44:46;7.15;;;2.00;;
75990;SDS011;64673;52.276;10.560;2023-05-23T13:47:12;7.57;;;2.70;;
75990;SDS011;64673;52.276;10.560;2023-05-23T13:49:38;7.07;;;2.45;;
75990;SDS011;64673;52.276;10.560;2023-05-23T13:52:03;4.75;;;2.60;;
75990;SDS011;64673;52.276;10.560;2023-05-23T13:54:29;15.10;;;3.17;;
75990;SDS011;64673;52.276;10.560;2023-05-23T13:56:55;10.23;;;2.92;;
75990;SDS011;64673;52.276;10.560;2023-05-23T13:59:20;6.85;;;2.38;;
75990;SDS011;64673;52.276;10.560;2023-05-23T14:01:46;6.22;;;2.17;;
75990;SDS011;64673;52.276;10.560;2023-05-23T14:04:12;8.23;;;2.38;;
75990;SDS011;64673;52.276;10.560;2023-05-23T14:06:37;8.82;;;2.50;;
75990;SDS011;64673;52.276;10.560;2023-05-23T14:09:03;9.25;;;2.92;;
75990;SDS011;64673;52.276;10.560;2023-05-23T14:11:29;7.45;;;2.40;;
75990;SDS011;64673;52.276;10.560;2023-05-23T14:13:54;10.15;;;2.35;;
75990;SDS011;64673;52.276;10.560;2023-05-23T14:16:20;8.65;;;2.58;;
75990;SDS011;64673;52.276;10.560;2023-05-23T14:18:45;9.77;;;2.25;;
75990;SDS011;64673;52.276;10.560;2023-05-23T14:21:10;7.35;;;2.65;;
75990;SDS011;64673;52.276;10.560;2023-05-23T14:23:36;5.75;;;2.20;;
75990;SDS011;64673;52.276;10.560;2023-05-23T14:26:01;11.45;;;2.20;;
75990;SDS011;64673;52.276;10.560;2023-05-23T14:28:26;7.63;;;2.17;;
75990;SDS011;64673;52.276;10.560;2023-05-23T14:30:52;6.82;;;2.00;;
75990;SDS011;64673;52.276;10.560;2023-05-23T14:33:17;8.95;;;2.22;;
75990;SDS011;64673;52.276;10.560;2023-05-23T14:35:42;9.80;;;2.75;;
75990;SDS011;64673;52.276;10.560;2023-05-23T14:38:08;5.80;;;2.22;;
75990;SDS011;64673;52.276;10.560;2023-05-23T14:40:33;8.88;;;2.30;;
75990;SDS011;64673;52.276;10.560;2023-05-23T14:42:59;7.32;;;1.98;;
75990;SDS011;64673;52.276;10.560;2023-05-23T14:45:24;11.07;;;2.17;;
75990;SDS011;64673;52.276;10.560;2023-05-23T14:47:49;5.85;;;2.25;;
75990;SDS011;64673;52.276;10.560;2023-05-23T14:50:15;6.90;;;2.08;;
75990;SDS011;64673;52.276;10.560;2023-05-23T14:52:41;6.78;;;2.10;;